Time;durP1;ratioP1;P1;durP2;ratioP2;P2;SDS_P1;SDS_P2;PMS_P1;PMS_P2;Temp;Humidity;BMP_temperature;BMP_pressure;BME280_temperature;BME280_humidity;BME280_pressure;Samples;Min_cycle;Max_cycle;Signal;HPM_P1;HPM_P2
2022/05/27 05:09:00;;;;;;;4.00;2.50;;;;;;;14.88;68.28;99474.33;214770;1275;140503;-63
2022/05/27 05:14:05;;;;;;;3.40;3.00;;;;;;;14.82;68.69;99479.20;214763;1277;141167;-64
2022/05/27 05:19:10;;;;;;;4.40;2.70;;;;;;;14.79;68.88;99478.17;214022;1277;139762;-64
2022/05/27 05:24:14;;;;;;;3.40;2.80;;;;;;;14.81;69.50;99466.97;212745;1277;140341;-63
2022/05/27 05:29:19;;;;;;;2.90;2.70;;;;;;;14.85;69.56;99454.89;213198;1277;140662;-62
2022/05/27 05:34:24;;;;;;;3.20;2.30;;;;;;;14.85;70.04;99455.48;214456;1277;140120;-63
2022/05/27 05:39:28;;;;;;;4.90;3.50;;;;;;;14.88;70.18;99450.39;213496;1277;140677;-63
2022/05/27 05:44:33;;;;;;;6.80;3.00;;;;;;;14.92;70.40;99444.91;213546;1277;141761;-61
2022/05/27 05:49:38;;;;;;;3.10;2.80;;;;;;;15.06;70.76;99437.09;212606;1277;142288;-65
2022/05/27 05:54:42;;;;;;;6.40;3.00;;;;;;;15.21;70.68;99428.86;212671;1277;140348;-64
2022/05/27 05:59:47;;;;;;;2.50;2.20;;;;;;;15.25;70.76;99429.61;214262;1277;141553;-66
2022/05/27 06:04:51;;;;;;;2.80;2.60;;;;;;;15.28;70.81;99420.89;213322;1277;139435;-63
2022/05/27 06:09:56;;;;;;;2.70;2.00;;;;;;;15.34;70.75;99420.38;214112;1277;141697;-64
2022/05/27 06:15:01;;;;;;;3.60;3.20;;;;;;;15.41;70.79;99417.83;213457;1277;141118;-64
2022/05/27 06:20:09;;;;;;;4.30;3.20;;;;;;;15.49;70.74;99419.90;212902;1277;140413;-63
2022/05/27 06:25:13;;;;;;;3.60;2.60;;;;;;;15.51;70.90;99423.34;214622;1277;140096;-64
2022/05/27 06:35:42;;;;;;;3.00;2.50;;;;;;;15.60;70.78;99416.55;215951;1274;140158;-64
2022/05/27 06:40:47;;;;;;;3.00;2.70;;;;;;;15.70;70.58;99421.03;215851;1274;140228;-68
2022/05/27 06:45:51;;;;;;;3.10;2.60;;;;;;;15.75;70.37;99419.56;215950;1274;140762;-62
2022/05/27 06:50:56;;;;;;;3.10;2.60;;;;;;;15.78;70.17;99413.95;215913;1274;139875;-62
2022/05/27 06:56:01;;;;;;;2.80;2.60;;;;;;;15.81;70.28;99410.71;215714;1274;141414;-64
2022/05/27 07:01:05;;;;;;;2.00;1.90;;;;;;;15.83;70.19;99404.16;215407;1274;139633;-64
2022/05/27 07:06:12;;;;;;;7.00;3.00;;;;;;;15.83;70.35;99394.31;215052;1274;140245;-63
2022/05/27 07:11:18;;;;;;;3.10;2.50;;;;;;;15.96;70.34;99395.36;215743;1274;140332;-63
2022/05/27 07:16:22;;;;;;;4.20;2.10;;;;;;;16.04;70.22;99391.61;213898;1274;139614;-63
2022/05/27 07:21:27;;;;;;;6.80;3.80;;;;;;;15.92;69.83;99393.40;214060;1274;139725;-66
2022/05/27 07:27:17;;;;;;;6.70;4.00;;;;;;;15.73;70.23;99414.35;214729;1274;141211;-64
2022/05/27 07:32:20;;;;;;;9.60;5.40;;;;;;;15.50;70.55;99427.54;212773;1274;139672;-63
2022/05/27 07:37:24;;;;;;;6.20;4.80;;;;;;;15.35;71.09;99424.78;214564;1274;140856;-63
2022/05/27 07:42:31;;;;;;;5.80;3.90;;;;;;;15.24;71.45;99419.56;214776;1274;141208;-63
2022/05/27 07:47:37;;;;;;;6.70;4.10;;;;;;;15.32;71.92;99422.70;213925;1274;139697;-62
2022/05/27 07:52:44;;;;;;;4.70;4.10;;;;;;;15.36;71.92;99426.92;214004;1274;140463;-64
2022/05/27 07:57:50;;;;;;;5.50;4.60;;;;;;;15.44;72.28;99425.52;215034;1274;140834;-63
2022/05/27 08:02:56;;;;;;;4.20;3.90;;;;;;;15.62;72.48;99416.27;212980;1274;140542;-65
2022/05/27 08:08:03;;;;;;;3.70;3.40;;;;;;;15.86;72.67;99411.39;214851;1274;140172;-66
2022/05/27 08:13:09;;;;;;;5.80;4.00;;;;;;;16.08;72.84;99420.45;214290;1274;139485;-63
2022/05/27 08:18:14;;;;;;;4.10;3.70;;;;;;;16.14;72.62;99423.70;213955;1274;140196;-62
2022/05/27 08:23:19;;;;;;;5.10;3.30;;;;;;;16.08;72.37;99437.02;215767;1274;140545;-63
2022/05/27 08:28:24;;;;;;;3.70;3.30;;;;;;;15.88;72.16;99436.48;215846;1274;140298;-64
2022/05/27 08:38:52;;;;;;;2.80;2.60;;;;;;;15.73;72.53;99447.99;216007;1274;140164;-64
2022/05/27 08:44:16;;;;;;;3.40;2.70;;;;;;;15.74;72.56;99448.80;215917;1274;140389;-64
2022/05/27 08:49:31;;;;;;;3.40;3.20;;;;;;;15.78;72.69;99441.69;214513;1274;139524;-62
2022/05/27 08:54:51;;;;;;;3.10;2.90;;;;;;;15.76;72.80;99455.83;215358;1274;140042;-63
2022/05/27 09:00:15;;;;;;;2.60;2.40;;;;;;;15.72;72.91;99447.89;215461;1274;139659;-66
2022/05/27 09:05:28;;;;;;;2.80;2.60;;;;;;;15.69;72.77;99451.13;214633;1276;139775;-63
2022/05/27 09:10:46;;;;;;;7.30;3.40;;;;;;;15.62;72.95;99449.33;214783;1274;140489;-62
2022/05/27 09:15:59;;;;;;;4.00;3.70;;;;;;;15.58;73.10;99453.60;213853;1275;141126;-65
2022/05/27 09:21:30;;;;;;;3.60;3.40;;;;;;;15.67;73.28;99448.82;212780;1276;142250;-65
2022/05/27 09:27:11;;;;;;;3.60;3.30;;;;;;;15.75;73.42;99450.73;214224;1276;140928;-65
2022/05/27 09:32:27;;;;;;;6.40;3.80;;;;;;;15.95;73.35;99448.16;214495;1276;139952;-64
2022/05/27 09:37:39;;;;;;;4.50;3.70;;;;;;;16.17;73.33;99446.80;214380;1276;142496;-68
2022/05/27 09:42:46;;;;;;;4.20;3.70;;;;;;;16.52;72.89;99436.17;212829;1276;141741;-64
2022/05/27 09:47:58;;;;;;;3.40;3.10;;;;;;;16.75;72.50;99442.02;214628;1276;139694;-64
2022/05/27 09:53:04;;;;;;;5.50;3.30;;;;;;;16.74;71.86;99443.04;213703;1276;140526;-65
2022/05/27 09:58:08;;;;;;;2.10;2.00;;;;;;;16.69;71.40;99446.14;215218;1276;139342;-62
2022/05/27 10:03:32;;;;;;;3.10;2.80;;;;;;;16.50;71.04;99455.77;214019;1276;140799;-62
2022/05/27 10:08:45;;;;;;;3.30;3.00;;;;;;;16.20;70.90;99484.27;214715;1276;139597;-64
2022/05/27 10:14:10;;;;;;;2.90;2.10;;;;;;;15.80;70.28;99490.48;213380;1274;140063;-64
2022/05/27 10:19:23;;;;;;;1.40;1.40;;;;;;;15.37;69.83;99487.41;216009;1274;142432;-64
2022/05/27 10:24:37;;;;;;;2.20;2.00;;;;;;;15.08;69.89;99459.48;216055;1274;140248;-64
2022/05/27 10:30:00;;;;;;;1.60;1.50;;;;;;;15.00;70.19;99448.69;216002;1274;139384;-63
2022/05/27 10:35:17;;;;;;;1.90;1.20;;;;;;;14.94;69.58;99430.73;214968;1274;140580;-64
2022/05/27 10:40:46;;;;;;;2.00;1.90;;;;;;;14.79;69.70;99420.02;215501;1274;139995;-64
2022/05/27 10:45:54;;;;;;;1.50;1.40;;;;;;;14.75;69.86;99423.12;214691;1274;150120;-62
2022/05/27 17:17:45;;;;;;;6.10;2.40;;;;;;;15.64;62.63;99230.23;208099;1308;141727;-64
2022/05/27 17:22:51;;;;;;;10.70;2.20;;;;;;;15.57;61.42;99235.46;212589;1285;139867;-63
2022/05/27 17:27:56;;;;;;;2.80;2.00;;;;;;;15.57;60.67;99242.65;211998;1285;139800;-64
2022/05/27 17:33:03;;;;;;;2.50;1.50;;;;;;;15.56;59.85;99250.67;211477;1285;140921;-64
2022/05/27 17:38:15;;;;;;;9.70;1.70;;;;;;;15.50;59.13;99250.31;211734;1284;139375;-64
2022/05/27 17:43:25;;;;;;;1.10;1.10;;;;;;;15.33;58.26;99253.46;212338;1285;138674;-63
2022/05/27 17:54:01;;;;;;;2.40;1.00;;;;;;;14.94;56.62;99265.67;212456;1286;160615;-64
2022/05/27 17:59:05;;;;;;;5.10;1.00;;;;;;;14.85;55.81;99271.34;211596;1286;139705;-64
2022/05/27 18:04:13;;;;;;;4.40;1.20;;;;;;;14.81;55.45;99277.48;211860;1286;139360;-63
2022/05/27 18:09:17;;;;;;;0.90;0.90;;;;;;;14.76;55.26;99293.05;213952;1286;139609;-65
2022/05/27 18:14:27;;;;;;;1.80;0.90;;;;;;;14.69;55.71;99309.44;212748;1286;139863;-62
2022/05/27 18:19:36;;;;;;;2.60;1.10;;;;;;;14.53;56.28;99315.95;213932;1285;139324;-64
2022/05/27 18:31:07;;;;;;;3.30;1.40;;;;;;;14.28;57.24;99334.19;213092;1286;140419;-62
2022/05/27 18:36:13;;;;;;;3.80;1.60;;;;;;;14.16;57.23;99336.37;212617;1286;139367;-61
2022/05/27 18:41:23;;;;;;;9.00;2.00;;;;;;;14.06;57.43;99347.95;213075;1286;139156;-62
2022/05/27 18:46:27;;;;;;;1.70;1.20;;;;;;;13.95;57.06;99354.32;212444;1286;139740;-64
2022/05/27 18:51:34;;;;;;;2.70;1.80;;;;;;;13.84;57.15;99360.17;213333;1286;139900;-64
2022/05/27 18:56:40;;;;;;;1.60;1.30;;;;;;;13.73;56.82;99367.40;212278;1286;143123;-63
2022/05/27 19:01:49;;;;;;;2.30;1.30;;;;;;;13.62;56.72;99377.49;211957;1285;139425;-62
2022/05/27 19:06:57;;;;;;;2.40;1.90;;;;;;;13.50;56.31;99388.00;213065;1279;149440;-63
2022/05/27 19:12:05;;;;;;;6.30;1.90;;;;;;;13.39;56.52;99397.98;213651;1278;138920;-63
2022/05/27 19:17:12;;;;;;;3.60;2.20;;;;;;;13.30;56.15;99406.71;213029;1279;139561;-64
2022/05/27 19:22:22;;;;;;;2.00;1.30;;;;;;;13.18;56.23;99403.27;213799;1279;141046;-62
2022/05/27 19:27:27;;;;;;;5.70;1.30;;;;;;;13.01;56.23;99403.52;213471;1280;140810;-62
2022/05/27 19:32:32;;;;;;;1.30;0.90;;;;;;;12.84;55.84;99402.98;213433;1279;140078;-63
2022/05/27 19:37:37;;;;;;;2.20;1.00;;;;;;;12.70;55.54;99399.89;213789;1280;138811;-63
2022/05/27 19:42:42;;;;;;;2.50;1.60;;;;;;;12.58;55.40;99395.79;213899;1280;139975;-64
2022/05/27 19:47:48;;;;;;;3.10;1.00;;;;;;;12.46;55.54;99390.73;213689;1280;139856;-62
2022/05/27 19:52:54;;;;;;;4.50;1.80;;;;;;;12.33;55.43;99390.02;214571;1279;139514;-63
2022/05/27 20:09:08;;;;;;;4.20;1.90;;;;;;;11.89;55.68;99413.11;215359;1277;139869;-62
2022/05/27 20:14:13;;;;;;;1.80;0.70;;;;;;;11.80;56.01;99418.30;214827;1280;140032;-63
2022/05/27 20:19:19;;;;;;;7.30;2.20;;;;;;;11.67;56.07;99423.35;214352;1280;141700;-62
2022/05/27 20:24:25;;;;;;;1.80;1.00;;;;;;;11.59;56.27;99424.02;215369;1280;142189;-63
2022/05/27 20:29:33;;;;;;;2.00;1.50;;;;;;;11.52;56.53;99418.21;213674;1280;139643;-63
2022/05/27 20:34:42;;;;;;;6.20;2.00;;;;;;;11.39;56.47;99414.46;212935;1279;138906;-63
2022/05/27 20:39:48;;;;;;;2.30;1.20;;;;;;;11.24;56.90;99419.23;213999;1280;139541;-64
2022/05/27 20:44:54;;;;;;;4.30;1.80;;;;;;;11.14;57.31;99419.11;214526;1280;140517;-62
2022/05/27 20:50:00;;;;;;;4.30;1.80;;;;;;;11.07;57.43;99419.01;215018;1274;139463;-60
2022/05/27 20:55:06;;;;;;;4.40;1.50;;;;;;;11.00;57.82;99419.44;214290;1274;139560;-63
2022/05/27 21:00:11;;;;;;;1.20;0.80;;;;;;;10.93;57.95;99419.41;214022;1274;139959;-64
2022/05/27 21:05:16;;;;;;;2.80;1.90;;;;;;;10.90;58.12;99412.31;214745;1274;139255;-62
